createdAt,value
2019-03-08T00:01:10.364Z,12.80
2019-03-08T00:03:41.611Z,9.10
2019-03-08T00:06:12.970Z,8.13
2019-03-08T00:08:43.817Z,9.03
2019-03-08T00:11:15.364Z,8.47
2019-03-08T00:13:46.220Z,9.37
2019-03-08T00:16:17.015Z,8.50
2019-03-08T00:18:47.835Z,6.43
2019-03-08T00:21:19.171Z,8.37
2019-03-08T00:23:51.804Z,9.67
2019-03-08T00:26:22.677Z,7.43
2019-03-08T00:28:59.373Z,9.63
2019-03-08T00:31:31.515Z,8.63
2019-03-08T00:34:02.422Z,6.67
2019-03-08T00:36:33.144Z,6.47
2019-03-08T00:39:05.040Z,4.83
2019-03-08T00:41:36.990Z,4.60
2019-03-08T00:44:07.704Z,10.03
2019-03-08T00:46:38.463Z,9.70
2019-03-08T00:49:19.680Z,7.43
2019-03-08T00:51:53.672Z,7.90
2019-03-08T00:54:27.778Z,7.83
2019-03-08T00:56:58.522Z,8.43
2019-03-08T00:59:29.080Z,11.93
2019-03-08T01:02:01.642Z,12.17
2019-03-08T01:04:35.694Z,4.57
2019-03-08T01:07:07.760Z,9.77
2019-03-08T01:09:38.516Z,13.93
2019-03-08T01:12:09.288Z,6.53
2019-03-08T01:14:43.044Z,14.53
2019-03-08T01:17:13.896Z,7.73
2019-03-08T01:19:46.783Z,8.13
2019-03-08T01:22:17.447Z,8.90
2019-03-08T01:25:01.003Z,7.00
2019-03-08T01:27:35.020Z,11.07
2019-03-08T01:30:08.738Z,6.77
2019-03-08T01:32:39.535Z,10.17
2019-03-08T01:35:10.254Z,5.27
2019-03-08T01:37:40.979Z,8.77
2019-03-08T01:40:11.882Z,7.20
2019-03-08T01:42:52.913Z,7.73
2019-03-08T01:45:30.265Z,7.80
2019-03-08T01:48:01.065Z,9.67
2019-03-08T01:50:34.174Z,9.47
2019-03-08T01:53:13.030Z,6.23
2019-03-08T01:55:43.892Z,6.57
2019-03-08T01:58:14.695Z,7.70
2019-03-08T02:00:45.711Z,12.70
2019-03-08T02:03:17.243Z,9.50
2019-03-08T02:05:51.677Z,11.60
2019-03-08T02:08:22.907Z,9.87
2019-03-08T02:10:54.830Z,5.77
2019-03-08T02:13:26.513Z,11.40
2019-03-08T02:15:57.116Z,7.30
2019-03-08T02:18:27.865Z,10.07
2019-03-08T02:21:16.598Z,12.00
2019-03-08T02:23:47.321Z,9.80
2019-03-08T02:26:18.070Z,9.00
2019-03-08T02:28:48.903Z,8.47
2019-03-08T02:31:19.854Z,6.07
2019-03-08T02:33:50.581Z,11.03
2019-03-08T02:36:40.986Z,5.97
2019-03-08T02:39:14.112Z,7.60
2019-03-08T02:41:44.946Z,6.80
2019-03-08T02:44:15.607Z,4.53
2019-03-08T02:46:46.317Z,8.93
2019-03-08T02:49:16.952Z,6.33
2019-03-08T02:51:48.117Z,5.43
2019-03-08T02:54:18.871Z,6.70
2019-03-08T02:56:49.700Z,5.20
2019-03-08T02:59:20.526Z,6.43
2019-03-08T03:01:51.202Z,4.63
2019-03-08T03:04:23.114Z,4.37
2019-03-08T03:06:53.764Z,5.57
2019-03-08T03:09:24.766Z,4.53
2019-03-08T03:12:01.846Z,5.50
2019-03-08T03:14:32.743Z,3.67
2019-03-08T03:17:10.818Z,5.27
2019-03-08T03:19:41.724Z,4.50
2019-03-08T03:22:12.394Z,5.20
2019-03-08T03:24:43.134Z,5.30
2019-03-08T03:27:13.859Z,4.90
2019-03-08T03:29:44.656Z,5.33
2019-03-08T03:32:26.713Z,7.53
2019-03-08T03:34:57.561Z,7.77
2019-03-08T03:37:28.361Z,6.17
2019-03-08T03:40:12.961Z,11.60
2019-03-08T03:42:43.844Z,6.37
2019-03-08T03:45:17.982Z,9.50
2019-03-08T03:47:49.707Z,9.83
2019-03-08T03:50:20.619Z,6.87
2019-03-08T03:52:51.510Z,7.60
2019-03-08T03:55:22.350Z,11.33
2019-03-08T03:57:58.378Z,5.40
2019-03-08T04:00:29.188Z,8.20
2019-03-08T04:03:00.157Z,5.07
2019-03-08T04:05:30.927Z,6.87
2019-03-08T04:08:01.461Z,7.70
2019-03-08T04:10:39.790Z,6.83
2019-03-08T04:13:10.637Z,10.13
2019-03-08T04:15:41.306Z,6.73
2019-03-08T04:18:11.888Z,8.43
2019-03-08T04:20:45.902Z,8.20
2019-03-08T04:23:22.233Z,11.80
2019-03-08T04:25:52.998Z,7.43
2019-03-08T04:28:29.715Z,9.20
2019-03-08T04:31:15.772Z,9.43
2019-03-08T04:33:46.750Z,6.87
2019-03-08T04:36:17.673Z,10.10
2019-03-08T04:39:07.918Z,8.50
2019-03-08T04:41:38.627Z,7.87
2019-03-08T04:44:09.618Z,10.03
2019-03-08T04:46:43.840Z,5.80
2019-03-08T04:49:29.842Z,8.17
2019-03-08T04:52:04.781Z,8.07
2019-03-08T04:54:50.489Z,8.07
2019-03-08T04:57:29.283Z,8.40
2019-03-08T05:00:37.334Z,9.40
2019-03-08T05:03:08.169Z,8.17
2019-03-08T05:05:38.896Z,9.33
2019-03-08T05:08:14.304Z,7.27
2019-03-08T05:10:45.021Z,10.70
2019-03-08T05:13:17.900Z,13.50
2019-03-08T05:15:49.741Z,11.03
2019-03-08T05:18:33.797Z,8.63
2019-03-08T05:21:04.552Z,9.73
2019-03-08T05:23:35.354Z,14.37
2019-03-08T05:26:06.218Z,12.47
2019-03-08T05:28:42.530Z,10.60
2019-03-08T05:31:13.151Z,9.57
2019-03-08T05:33:43.879Z,9.00
2019-03-08T05:36:14.671Z,7.57
2019-03-08T05:38:45.427Z,10.07
2019-03-08T05:41:29.427Z,10.00
2019-03-08T05:44:00.155Z,6.63
2019-03-08T05:46:32.963Z,7.70
2019-03-08T05:49:03.754Z,11.77
2019-03-08T05:51:41.076Z,15.40
2019-03-08T05:54:23.331Z,14.20
2019-03-08T05:57:05.333Z,10.53
2019-03-08T05:59:42.430Z,13.53
2019-03-08T06:02:18.680Z,14.80
2019-03-08T06:04:57.024Z,10.90
2019-03-08T06:07:33.679Z,10.77
2019-03-08T06:10:04.938Z,14.83
2019-03-08T06:12:42.889Z,13.40
2019-03-08T06:15:17.775Z,15.43
2019-03-08T06:17:48.544Z,12.40
2019-03-08T06:20:19.379Z,12.00
2019-03-08T06:22:50.221Z,14.13
2019-03-08T06:25:21.074Z,14.43
2019-03-08T06:27:52.882Z,12.40
2019-03-08T06:30:23.834Z,13.93
2019-03-08T06:32:54.935Z,14.37
2019-03-08T06:35:29.743Z,16.73
2019-03-08T06:38:00.557Z,21.70
2019-03-08T06:40:31.320Z,15.57
2019-03-08T06:43:03.272Z,14.73
2019-03-08T06:45:34.353Z,13.67
2019-03-08T06:48:05.147Z,20.10
2019-03-08T06:50:38.924Z,20.87
2019-03-08T06:53:10.401Z,14.70
2019-03-08T06:55:45.597Z,20.47
2019-03-08T06:58:20.178Z,16.87
2019-03-08T07:00:52.715Z,16.57
2019-03-08T07:03:24.878Z,16.57
2019-03-08T07:05:56.374Z,12.03
2019-03-08T07:08:27.084Z,15.83
2019-03-08T07:11:00.109Z,18.70
2019-03-08T07:13:38.478Z,15.83
2019-03-08T07:16:13.137Z,13.13
2019-03-08T07:19:07.378Z,18.20
2019-03-08T07:21:40.204Z,14.60
2019-03-08T07:24:33.756Z,13.43
2019-03-08T07:27:16.903Z,20.10
2019-03-08T07:30:00.045Z,10.83
2019-03-08T07:32:33.862Z,17.37
2019-03-08T07:35:35.726Z,21.37
2019-03-08T07:38:14.130Z,14.50
2019-03-08T07:40:46.745Z,13.43
2019-03-08T07:43:33.249Z,18.23
2019-03-08T07:46:08.665Z,17.40
2019-03-08T07:48:46.385Z,15.77
2019-03-08T07:51:21.616Z,16.30
2019-03-08T07:54:08.059Z,15.63
2019-03-08T07:56:53.693Z,15.00
2019-03-08T07:59:26.316Z,15.20
2019-03-08T08:02:01.470Z,18.47
2019-03-08T08:04:50.335Z,18.10
2019-03-08T08:07:25.758Z,18.23
2019-03-08T08:10:15.476Z,20.17
2019-03-08T08:13:06.182Z,18.57
2019-03-08T08:15:39.276Z,18.77
2019-03-08T08:18:30.354Z,17.80
2019-03-08T08:21:06.327Z,22.70
2019-03-08T08:23:54.788Z,20.17
2019-03-08T08:26:27.945Z,18.10
2019-03-08T08:29:06.808Z,20.50
2019-03-08T08:31:57.088Z,15.40
2019-03-08T08:34:31.586Z,16.00
2019-03-08T08:37:22.282Z,26.20
2019-03-08T08:39:55.159Z,13.23
2019-03-08T08:42:38.537Z,19.77
2019-03-08T08:45:28.864Z,17.33
2019-03-08T08:48:01.288Z,17.57
2019-03-08T08:50:37.118Z,21.63
2019-03-08T08:53:12.237Z,18.80
2019-03-08T08:55:44.535Z,18.20
2019-03-08T08:58:26.143Z,20.60
2019-03-08T09:01:17.861Z,23.07
2019-03-08T09:04:13.652Z,17.13
2019-03-08T09:06:45.888Z,23.87
2019-03-08T09:09:27.147Z,18.37
2019-03-08T09:11:59.600Z,22.17
2019-03-08T09:14:32.049Z,18.43
2019-03-08T09:17:15.319Z,20.80
2019-03-08T09:19:50.720Z,29.70
2019-03-08T09:22:32.915Z,18.57
2019-03-08T09:25:32.500Z,25.77
2019-03-08T09:28:17.202Z,18.23
2019-03-08T09:30:54.190Z,17.37
2019-03-08T09:33:29.442Z,19.00
2019-03-08T09:36:03.930Z,27.07
2019-03-08T09:38:37.686Z,21.57
2019-03-08T09:41:15.899Z,21.70
2019-03-08T09:44:31.732Z,15.23
2019-03-08T09:47:12.017Z,19.00
2019-03-08T09:49:50.080Z,17.60
2019-03-08T09:52:35.111Z,20.30
2019-03-08T09:55:22.650Z,24.00
2019-03-08T09:58:07.568Z,27.77
2019-03-08T10:00:52.043Z,26.53
2019-03-08T10:03:46.506Z,19.17
2019-03-08T10:06:25.368Z,17.70
2019-03-08T10:09:03.881Z,25.67
2019-03-08T10:11:46.619Z,19.63
2019-03-08T10:14:25.425Z,22.60
2019-03-08T10:17:17.110Z,15.67
2019-03-08T10:19:55.613Z,19.13
2019-03-08T10:22:49.711Z,18.07
2019-03-08T10:25:24.936Z,17.20
2019-03-08T10:28:12.580Z,23.37
2019-03-08T10:31:01.476Z,22.77
2019-03-08T10:33:52.250Z,19.77
2019-03-08T10:36:34.297Z,11.30
2019-03-08T10:39:30.215Z,10.33
2019-03-08T10:42:02.437Z,15.33
2019-03-08T10:44:47.610Z,10.70
2019-03-08T10:47:32.332Z,11.10
2019-03-08T10:50:21.001Z,11.87
2019-03-08T10:52:53.463Z,9.80
2019-03-08T10:55:37.382Z,12.97
2019-03-08T10:58:26.580Z,16.07
2019-03-08T11:00:59.021Z,11.37
2019-03-08T11:03:36.558Z,8.30
2019-03-08T11:06:16.922Z,13.83
2019-03-08T11:08:49.213Z,11.17
2019-03-08T11:11:21.439Z,18.37
2019-03-08T11:14:02.809Z,18.57
2019-03-08T11:16:36.227Z,15.50
2019-03-08T11:19:09.128Z,17.00
2019-03-08T11:21:47.728Z,13.87
2019-03-08T11:24:20.219Z,18.13
2019-03-08T11:27:04.536Z,17.07
2019-03-08T11:29:32.829Z,20.70
2019-03-08T11:32:22.503Z,19.73
2019-03-08T11:34:52.413Z,19.40
2019-03-08T11:37:28.146Z,12.07
2019-03-08T11:40:07.110Z,15.80
2019-03-08T11:42:44.876Z,15.33
2019-03-08T11:45:20.111Z,19.90
2019-03-08T11:48:03.686Z,14.43
2019-03-08T11:50:52.244Z,13.60
2019-03-08T11:53:55.793Z,9.93
2019-03-08T11:56:23.775Z,13.70
2019-03-08T11:59:07.355Z,16.80
2019-03-08T12:01:56.380Z,14.47
2019-03-08T12:04:31.701Z,20.57
2019-03-08T12:07:33.953Z,16.77
2019-03-08T12:10:24.937Z,12.43
2019-03-08T12:13:06.251Z,15.03
2019-03-08T12:15:38.723Z,9.23
2019-03-08T12:18:17.268Z,13.87
2019-03-08T12:20:52.768Z,10.70
2019-03-08T12:23:49.324Z,12.57
2019-03-08T12:26:24.767Z,13.13
2019-03-08T12:29:02.911Z,18.07
2019-03-08T12:31:42.028Z,11.10
2019-03-08T12:34:24.425Z,17.33
2019-03-08T12:37:13.631Z,9.87
2019-03-08T12:39:51.211Z,8.90
2019-03-08T12:42:39.702Z,12.70
2019-03-08T12:45:13.242Z,9.43
2019-03-08T12:47:55.716Z,7.30
2019-03-08T12:50:32.340Z,9.80
2019-03-08T12:53:23.049Z,8.93
2019-03-08T12:56:01.782Z,7.67
2019-03-08T12:58:46.973Z,11.37
2019-03-08T13:01:23.042Z,10.67
2019-03-08T13:04:08.095Z,8.60
2019-03-08T13:06:40.521Z,6.63
2019-03-08T13:09:14.851Z,19.17
2019-03-08T13:11:52.080Z,10.37
2019-03-08T13:14:31.386Z,11.77
2019-03-08T13:17:03.302Z,12.97
2019-03-08T13:19:34.207Z,8.53
2019-03-08T13:22:10.665Z,17.20
2019-03-08T13:24:54.851Z,10.27
2019-03-08T13:27:32.910Z,10.57
2019-03-08T13:30:16.060Z,8.43
2019-03-08T13:32:47.861Z,10.83
2019-03-08T13:35:19.983Z,8.50
2019-03-08T13:37:54.077Z,8.30
2019-03-08T13:40:27.272Z,12.97
2019-03-08T13:42:58.150Z,9.43
2019-03-08T13:45:30.987Z,11.63
2019-03-08T13:48:09.490Z,11.30
2019-03-08T13:50:43.660Z,15.70
2019-03-08T13:53:20.335Z,10.70
2019-03-08T13:55:51.117Z,10.10
2019-03-08T13:58:23.948Z,8.40
2019-03-08T14:00:55.183Z,7.57
2019-03-08T14:03:38.161Z,12.70
2019-03-08T14:06:08.855Z,7.87
2019-03-08T14:08:39.389Z,7.83
2019-03-08T14:11:10.238Z,10.33
2019-03-08T14:13:40.947Z,12.73
2019-03-08T14:16:12.693Z,9.57
2019-03-08T14:18:43.389Z,8.63
2019-03-08T14:21:15.033Z,8.37
2019-03-08T14:23:45.713Z,8.43
2019-03-08T14:26:16.469Z,6.73
2019-03-08T14:28:50.867Z,11.70
2019-03-08T14:31:29.384Z,9.00
2019-03-08T14:34:00.849Z,11.40
2019-03-08T14:36:32.913Z,11.00
2019-03-08T14:39:08.009Z,10.80
2019-03-08T14:41:53.093Z,14.90
2019-03-08T14:44:29.521Z,11.63
2019-03-08T14:47:00.343Z,9.63
2019-03-08T14:49:31.069Z,10.33
2019-03-08T14:52:01.737Z,8.83
2019-03-08T14:54:37.730Z,9.47
2019-03-08T14:57:09.235Z,7.80
2019-03-08T14:59:45.511Z,7.70
2019-03-08T15:02:29.760Z,8.37
2019-03-08T15:05:19.189Z,8.97
2019-03-08T15:07:55.613Z,8.60
2019-03-08T15:10:39.122Z,14.23
2019-03-08T15:13:03.128Z,8.97
2019-03-08T15:15:36.897Z,7.73
2019-03-08T15:18:07.665Z,9.20
2019-03-08T15:20:47.373Z,6.80
2019-03-08T15:23:18.266Z,10.13
2019-03-08T15:25:50.543Z,5.90
2019-03-08T15:28:22.454Z,6.87
2019-03-08T15:30:53.240Z,9.17
2019-03-08T15:33:27.101Z,9.43
2019-03-08T15:35:57.964Z,4.50
2019-03-08T15:38:30.570Z,12.53
2019-03-08T15:41:17.253Z,11.77
2019-03-08T15:43:51.192Z,9.37
2019-03-08T15:46:22.362Z,10.57
2019-03-08T15:48:54.465Z,6.40
2019-03-08T15:51:26.957Z,7.60
2019-03-08T15:53:59.148Z,10.53
2019-03-08T15:56:29.927Z,12.43
2019-03-08T15:59:00.976Z,7.23
2019-03-08T16:01:32.003Z,6.47
2019-03-08T16:04:12.073Z,10.10
2019-03-08T16:06:43.843Z,7.77
2019-03-08T16:09:14.405Z,8.47
2019-03-08T16:11:46.203Z,8.00
2019-03-08T16:14:41.618Z,10.70
2019-03-08T16:17:17.999Z,7.93
2019-03-08T16:19:48.793Z,11.67
2019-03-08T16:22:20.611Z,12.00
2019-03-08T16:24:52.329Z,8.07
2019-03-08T16:27:24.793Z,9.07
2019-03-08T16:29:56.861Z,5.37
2019-03-08T16:32:38.418Z,8.77
2019-03-08T16:35:42.129Z,6.80
2019-03-08T16:38:30.748Z,6.30
2019-03-08T16:41:15.228Z,11.93
2019-03-08T16:44:00.298Z,6.67
2019-03-08T16:46:38.500Z,12.30
2019-03-08T16:49:21.881Z,9.13
2019-03-08T16:51:57.000Z,11.67
2019-03-08T16:54:34.809Z,12.97
2019-03-08T16:57:23.107Z,10.90
2019-03-08T17:00:12.106Z,9.57
2019-03-08T17:03:09.774Z,9.00
2019-03-08T17:05:57.523Z,5.10
2019-03-08T17:08:55.461Z,9.47
2019-03-08T17:11:30.760Z,9.50
2019-03-08T17:14:03.134Z,7.63
2019-03-08T17:16:45.027Z,5.97
2019-03-08T17:19:20.061Z,6.63
2019-03-08T17:22:05.835Z,7.17
2019-03-08T17:24:38.192Z,6.53
2019-03-08T17:27:21.010Z,4.67
2019-03-08T17:29:53.417Z,8.40
2019-03-08T17:32:40.810Z,4.57
2019-03-08T17:35:15.441Z,8.67
2019-03-08T17:37:53.793Z,5.77
2019-03-08T17:43:49.010Z,10.57
2019-03-08T17:46:37.474Z,8.97
2019-03-08T17:49:19.818Z,4.37
2019-03-08T17:51:54.859Z,7.77
2019-03-08T17:54:30.120Z,9.60
2019-03-08T17:57:02.525Z,8.23
2019-03-08T17:59:46.960Z,5.83
2019-03-08T18:02:19.363Z,7.87
2019-03-08T18:04:54.742Z,7.50
2019-03-08T18:07:32.936Z,8.27
2019-03-08T18:10:05.543Z,9.20
2019-03-08T18:12:54.067Z,10.07
2019-03-08T18:15:33.114Z,10.27
2019-03-08T18:18:11.694Z,9.00
2019-03-08T18:20:47.522Z,9.07
2019-03-08T18:23:26.019Z,10.27
2019-03-08T18:26:27.717Z,10.00
2019-03-08T18:29:26.738Z,8.57
2019-03-08T18:32:17.361Z,10.60
2019-03-08T18:35:07.004Z,8.53
2019-03-08T18:37:49.728Z,6.63
2019-03-08T18:40:31.392Z,8.00
2019-03-08T18:43:15.983Z,6.93
2019-03-08T18:45:55.802Z,11.13
2019-03-08T18:48:32.074Z,7.50
2019-03-08T18:51:04.459Z,12.37
2019-03-08T18:53:57.046Z,9.63
2019-03-08T18:56:44.393Z,11.47
2019-03-08T18:59:41.134Z,9.83
2019-03-08T19:02:30.666Z,8.97
2019-03-08T19:05:21.614Z,11.13
2019-03-08T19:08:01.013Z,8.00
2019-03-08T19:10:36.869Z,10.10
2019-03-08T19:13:12.161Z,5.70
2019-03-08T19:15:47.655Z,5.20
2019-03-08T19:18:26.196Z,10.77
2019-03-08T19:20:58.713Z,8.03
2019-03-08T19:23:34.167Z,9.13
2019-03-08T19:26:24.776Z,12.43
2019-03-08T19:28:59.433Z,9.30
2019-03-08T19:31:32.105Z,7.80
2019-03-08T19:34:07.168Z,10.73
2019-03-08T19:36:39.979Z,10.03
2019-03-08T19:39:19.487Z,11.50
2019-03-08T19:42:06.894Z,7.00
2019-03-08T19:44:56.229Z,11.73
2019-03-08T19:47:52.623Z,7.83
2019-03-08T19:50:46.749Z,8.43
2019-03-08T19:53:35.598Z,10.13
2019-03-08T19:56:12.042Z,10.20
2019-03-08T19:59:00.008Z,9.70
2019-03-08T20:01:39.745Z,8.40
2019-03-08T20:04:31.250Z,10.17
2019-03-08T20:07:22.572Z,15.63
2019-03-08T20:09:54.964Z,11.33
2019-03-08T20:12:41.333Z,12.10
2019-03-08T20:15:22.797Z,13.70
2019-03-08T20:17:56.252Z,12.77
2019-03-08T20:20:53.875Z,18.33
2019-03-08T20:23:32.711Z,14.13
2019-03-08T20:26:08.876Z,11.73
2019-03-08T20:28:44.799Z,12.20
2019-03-08T20:31:26.773Z,12.87
2019-03-08T20:34:00.269Z,12.87
2019-03-08T20:36:54.509Z,10.80
2019-03-08T20:39:29.333Z,10.47
2019-03-08T20:42:02.336Z,10.93
2019-03-08T20:44:51.088Z,11.70
2019-03-08T20:47:25.523Z,8.73
2019-03-08T20:49:56.400Z,13.10
2019-03-08T20:52:28.728Z,12.10
2019-03-08T20:55:00.172Z,8.23
2019-03-08T20:57:32.864Z,12.10
2019-03-08T21:00:09.272Z,11.37
2019-03-08T21:02:41.420Z,12.13
2019-03-08T21:05:12.482Z,9.93
2019-03-08T21:07:43.339Z,8.13
2019-03-08T21:10:14.900Z,10.27
2019-03-08T21:12:46.826Z,10.30
2019-03-08T21:15:24.945Z,8.63
2019-03-08T21:17:50.574Z,14.20
2019-03-08T21:20:21.636Z,9.37
2019-03-08T21:23:04.667Z,11.70
2019-03-08T21:25:36.808Z,11.13
2019-03-08T21:28:08.093Z,8.47
2019-03-08T21:30:39.345Z,10.17
2019-03-08T21:33:12.718Z,12.17
2019-03-08T21:35:44.782Z,12.17
2019-03-08T21:38:16.845Z,12.90
2019-03-08T21:40:53.449Z,8.40
2019-03-08T21:43:26.367Z,10.77
2019-03-08T21:46:05.167Z,11.03
2019-03-08T21:48:49.353Z,11.07
2019-03-08T21:51:20.488Z,10.37
2019-03-08T21:53:51.485Z,11.67
2019-03-08T21:56:22.342Z,7.43
2019-03-08T21:58:54.417Z,8.93
2019-03-08T22:01:26.870Z,9.60
2019-03-08T22:04:08.986Z,7.77
2019-03-08T22:06:41.200Z,11.37
2019-03-08T22:09:32.901Z,10.07
2019-03-08T22:12:07.255Z,10.43
2019-03-08T22:14:46.225Z,9.50
2019-03-08T22:17:16.945Z,10.30
2019-03-08T22:19:47.875Z,11.00
2019-03-08T22:22:20.031Z,10.53
2019-03-08T22:24:52.019Z,12.10
2019-03-08T22:27:23.706Z,10.97
2019-03-08T22:29:57.490Z,10.70
2019-03-08T22:32:34.250Z,9.33
2019-03-08T22:35:09.414Z,10.60
2019-03-08T22:37:49.070Z,7.87
2019-03-08T22:40:19.859Z,12.57
2019-03-08T22:42:51.564Z,7.87
2019-03-08T22:45:22.364Z,9.00
2019-03-08T22:47:53.142Z,8.67
2019-03-08T22:50:34.124Z,8.00
2019-03-08T22:53:04.877Z,8.17
2019-03-08T22:55:35.616Z,11.17
2019-03-08T22:58:06.352Z,10.43
2019-03-08T23:00:59.198Z,14.47
2019-03-08T23:03:32.001Z,10.67
2019-03-08T23:06:06.412Z,8.43
2019-03-08T23:08:46.434Z,8.67
2019-03-08T23:11:17.176Z,10.83
2019-03-08T23:13:48.067Z,12.27
2019-03-08T23:16:18.837Z,6.90
2019-03-08T23:18:49.569Z,9.77
2019-03-08T23:21:21.250Z,4.63
2019-03-08T23:23:52.977Z,4.90
2019-03-08T23:26:25.639Z,12.00
2019-03-08T23:28:59.196Z,6.70
2019-03-08T23:31:31.581Z,5.50
2019-03-08T23:34:13.325Z,7.10
2019-03-08T23:36:44.107Z,5.47
2019-03-08T23:39:25.956Z,8.87
2019-03-08T23:41:56.604Z,7.67
2019-03-08T23:44:45.753Z,9.10
2019-03-08T23:47:16.329Z,14.10
2019-03-08T23:49:49.070Z,7.93
2019-03-08T23:52:33.098Z,7.67
2019-03-08T23:55:13.199Z,10.40
2019-03-08T23:57:45.840Z,6.90
